Retour à l'actu

LFPG

METAR

LFPG 040030Z 26004KT CAVOK 04/02 Q1011 NOSIG

TAF

LFPG 032300Z
  • | 0400/0506 29004KT CAVOK TX11/0414Z TN01/0406Z
  • | PROB30 TEMPO 0403/0406 4000 BR
  • | BECMG 0502/0504 BKN012
  • | PROB40 TEMPO 0504/0506 BKN006
  • | PROB30 TEMPO 0504/0506 BKN004